VABB/BOM METAR and TAF weather

Enter ICAO airport designator
Station Type Date Time Source
VABB METAR 2020/02/25 11:00 UTC NOAA

VABB 251100Z 32011KT 6000 FEW020 35/13 Q1008 NOSIG


Station Type Date Time Source
VABB Decoded METAR 2020/02/25 11:00 UTC NOAA

Bombay / Santacruz, India (VABB) 19-07N 072-51E 14M
Feb 25, 2020 - 06:00 AM EST / 2020.02.25 1100 UTC
Wind: from the NW (320 degrees) at 13 MPH (11 KT):0
Visibility: 3 mile(s):0
Sky conditions: mostly clear
Temperature: 95 F (35 C)
Dew Point: 55 F (13 C)
Relative Humidity: 26%
Pressure (altimeter): 29.77 in. Hg (1008 hPa)
ob: VABB 251100Z 32011KT 6000 FEW020 35/13 Q1008 NOSIG
cycle: 11

Station Type Date Time Source
VABB TAF 2020/02/25 06:09 UTC NOAA

TAF TAF VABB 250500Z 2506/2612 27010KT 3000 FU NSC
BECMG 2509/2511 4000 FU
BECMG 2513/2515 33006KT 3000 FU
BECMG 2516/2518 05005KT
BECMG 2522/2524 00000KT 2500 HZ FU
BECMG 2601/2603 07006KT 3000 HZ FU
BECMG 2603/2605 VRB03KT
BECMG 2606/2608 27010KT
BECMG 2609/2611 4000 FU

Example: see airport list